sensor_id;sensor_type;location;lat;lon;timestamp;P1;durP1;ratioP1;P2;durP2;ratioP2
15126;SDS011;7664;52.008;4.748;2023-05-21T00:00:40;4.05;;;2.08;;
15126;SDS011;7664;52.008;4.748;2023-05-21T00:03:08;3.05;;;1.95;;
15126;SDS011;7664;52.008;4.748;2023-05-21T00:05:39;3.03;;;1.98;;
15126;SDS011;7664;52.008;4.748;2023-05-21T00:08:07;3.15;;;1.85;;
15126;SDS011;7664;52.008;4.748;2023-05-21T00:10:36;2.78;;;1.67;;
15126;SDS011;7664;52.008;4.748;2023-05-21T00:13:05;3.67;;;1.95;;
15126;SDS011;7664;52.008;4.748;2023-05-21T00:15:34;2.42;;;2.05;;
15126;SDS011;7664;52.008;4.748;2023-05-21T00:18:04;1.90;;;1.70;;
15126;SDS011;7664;52.008;4.748;2023-05-21T00:20:33;3.47;;;2.20;;
15126;SDS011;7664;52.008;4.748;2023-05-21T00:23:02;2.10;;;1.73;;
15126;SDS011;7664;52.008;4.748;2023-05-21T00:25:30;1.70;;;1.60;;
15126;SDS011;7664;52.008;4.748;2023-05-21T00:27:59;2.25;;;1.75;;
15126;SDS011;7664;52.008;4.748;2023-05-21T00:30:27;4.25;;;2.03;;
15126;SDS011;7664;52.008;4.748;2023-05-21T00:32:56;2.13;;;1.80;;
15126;SDS011;7664;52.008;4.748;2023-05-21T00:35:29;2.45;;;1.60;;
15126;SDS011;7664;52.008;4.748;2023-05-21T00:37:57;2.45;;;1.67;;
15126;SDS011;7664;52.008;4.748;2023-05-21T00:40:26;2.42;;;1.63;;
15126;SDS011;7664;52.008;4.748;2023-05-21T00:42:55;2.22;;;1.60;;
15126;SDS011;7664;52.008;4.748;2023-05-21T00:45:24;3.70;;;1.70;;
15126;SDS011;7664;52.008;4.748;2023-05-21T00:47:52;1.92;;;1.52;;
15126;SDS011;7664;52.008;4.748;2023-05-21T00:50:21;2.40;;;1.80;;
15126;SDS011;7664;52.008;4.748;2023-05-21T00:52:51;6.38;;;1.83;;
15126;SDS011;7664;52.008;4.748;2023-05-21T00:55:20;7.25;;;2.20;;
15126;SDS011;7664;52.008;4.748;2023-05-21T00:57:48;4.20;;;1.63;;
15126;SDS011;7664;52.008;4.748;2023-05-21T01:00:16;1.92;;;1.63;;
15126;SDS011;7664;52.008;4.748;2023-05-21T01:02:45;4.35;;;2.00;;
15126;SDS011;7664;52.008;4.748;2023-05-21T01:05:15;3.40;;;1.83;;
15126;SDS011;7664;52.008;4.748;2023-05-21T01:07:43;1.95;;;1.60;;
15126;SDS011;7664;52.008;4.748;2023-05-21T01:10:14;4.50;;;2.13;;
15126;SDS011;7664;52.008;4.748;2023-05-21T01:12:43;4.68;;;1.85;;
15126;SDS011;7664;52.008;4.748;2023-05-21T01:15:11;3.88;;;1.60;;
15126;SDS011;7664;52.008;4.748;2023-05-21T01:17:40;3.28;;;2.05;;
15126;SDS011;7664;52.008;4.748;2023-05-21T01:20:11;3.05;;;1.85;;
15126;SDS011;7664;52.008;4.748;2023-05-21T01:22:52;3.08;;;2.10;;
15126;SDS011;7664;52.008;4.748;2023-05-21T01:25:22;3.15;;;1.92;;
15126;SDS011;7664;52.008;4.748;2023-05-21T01:27:51;5.28;;;2.35;;
15126;SDS011;7664;52.008;4.748;2023-05-21T01:30:19;3.65;;;2.15;;
15126;SDS011;7664;52.008;4.748;2023-05-21T01:32:51;1.92;;;1.50;;
15126;SDS011;7664;52.008;4.748;2023-05-21T01:35:24;3.00;;;2.08;;
15126;SDS011;7664;52.008;4.748;2023-05-21T01:37:57;2.60;;;2.08;;
15126;SDS011;7664;52.008;4.748;2023-05-21T01:40:28;3.03;;;2.38;;
15126;SDS011;7664;52.008;4.748;2023-05-21T01:42:56;4.65;;;2.08;;
15126;SDS011;7664;52.008;4.748;2023-05-21T01:45:26;2.65;;;1.95;;
15126;SDS011;7664;52.008;4.748;2023-05-21T01:47:55;3.38;;;2.45;;
15126;SDS011;7664;52.008;4.748;2023-05-21T01:50:24;1.90;;;1.67;;
15126;SDS011;7664;52.008;4.748;2023-05-21T01:52:53;3.20;;;2.20;;
15126;SDS011;7664;52.008;4.748;2023-05-21T01:55:23;7.70;;;2.20;;
15126;SDS011;7664;52.008;4.748;2023-05-21T01:57:52;4.25;;;2.67;;
15126;SDS011;7664;52.008;4.748;2023-05-21T02:00:21;2.45;;;1.80;;
15126;SDS011;7664;52.008;4.748;2023-05-21T02:02:50;2.33;;;1.80;;
15126;SDS011;7664;52.008;4.748;2023-05-21T02:05:19;5.13;;;2.25;;
15126;SDS011;7664;52.008;4.748;2023-05-21T02:07:48;2.90;;;2.08;;
15126;SDS011;7664;52.008;4.748;2023-05-21T02:10:17;3.03;;;2.05;;
15126;SDS011;7664;52.008;4.748;2023-05-21T02:12:47;2.97;;;2.05;;
15126;SDS011;7664;52.008;4.748;2023-05-21T02:15:15;3.65;;;2.58;;
15126;SDS011;7664;52.008;4.748;2023-05-21T02:17:44;3.78;;;2.28;;
15126;SDS011;7664;52.008;4.748;2023-05-21T02:20:13;3.45;;;2.00;;
15126;SDS011;7664;52.008;4.748;2023-05-21T02:22:42;5.18;;;2.50;;
15126;SDS011;7664;52.008;4.748;2023-05-21T02:25:11;3.45;;;2.13;;
15126;SDS011;7664;52.008;4.748;2023-05-21T02:27:40;2.60;;;2.10;;
15126;SDS011;7664;52.008;4.748;2023-05-21T02:30:10;3.28;;;2.10;;
15126;SDS011;7664;52.008;4.748;2023-05-21T02:32:39;2.80;;;2.30;;
15126;SDS011;7664;52.008;4.748;2023-05-21T02:35:09;3.20;;;1.80;;
15126;SDS011;7664;52.008;4.748;2023-05-21T02:37:38;2.97;;;2.00;;
15126;SDS011;7664;52.008;4.748;2023-05-21T02:40:07;2.45;;;1.83;;
15126;SDS011;7664;52.008;4.748;2023-05-21T02:42:36;3.60;;;2.42;;
15126;SDS011;7664;52.008;4.748;2023-05-21T02:45:07;4.28;;;1.90;;
15126;SDS011;7664;52.008;4.748;2023-05-21T02:47:39;11.15;;;2.33;;
15126;SDS011;7664;52.008;4.748;2023-05-21T02:50:08;3.97;;;2.22;;
15126;SDS011;7664;52.008;4.748;2023-05-21T02:52:44;3.55;;;2.10;;
15126;SDS011;7664;52.008;4.748;2023-05-21T02:55:13;2.20;;;2.00;;
15126;SDS011;7664;52.008;4.748;2023-05-21T02:57:41;4.35;;;3.15;;
15126;SDS011;7664;52.008;4.748;2023-05-21T03:00:10;3.55;;;2.58;;
15126;SDS011;7664;52.008;4.748;2023-05-21T03:02:42;3.53;;;2.60;;
15126;SDS011;7664;52.008;4.748;2023-05-21T03:05:10;3.83;;;2.33;;
15126;SDS011;7664;52.008;4.748;2023-05-21T03:07:38;3.90;;;2.15;;
15126;SDS011;7664;52.008;4.748;2023-05-21T03:10:09;3.63;;;2.40;;
15126;SDS011;7664;52.008;4.748;2023-05-21T03:12:38;3.45;;;2.47;;
15126;SDS011;7664;52.008;4.748;2023-05-21T03:15:06;2.53;;;2.22;;
15126;SDS011;7664;52.008;4.748;2023-05-21T03:17:35;4.03;;;2.25;;
15126;SDS011;7664;52.008;4.748;2023-05-21T03:20:05;4.72;;;2.65;;
15126;SDS011;7664;52.008;4.748;2023-05-21T03:22:34;3.33;;;2.15;;
15126;SDS011;7664;52.008;4.748;2023-05-21T03:25:04;4.45;;;2.63;;
15126;SDS011;7664;52.008;4.748;2023-05-21T03:27:32;3.60;;;2.60;;
15126;SDS011;7664;52.008;4.748;2023-05-21T03:30:03;4.95;;;2.45;;
15126;SDS011;7664;52.008;4.748;2023-05-21T03:32:38;4.38;;;2.42;;
15126;SDS011;7664;52.008;4.748;2023-05-21T03:35:08;2.25;;;2.05;;
15126;SDS011;7664;52.008;4.748;2023-05-21T03:37:37;4.03;;;2.50;;
15126;SDS011;7664;52.008;4.748;2023-05-21T03:40:07;3.92;;;2.70;;
15126;SDS011;7664;52.008;4.748;2023-05-21T03:42:36;5.30;;;2.50;;
15126;SDS011;7664;52.008;4.748;2023-05-21T03:45:05;3.00;;;2.30;;
15126;SDS011;7664;52.008;4.748;2023-05-21T03:47:52;6.13;;;3.45;;
15126;SDS011;7664;52.008;4.748;2023-05-21T03:50:22;3.95;;;2.80;;
15126;SDS011;7664;52.008;4.748;2023-05-21T03:52:50;4.53;;;2.90;;
15126;SDS011;7664;52.008;4.748;2023-05-21T03:55:19;3.28;;;2.45;;
15126;SDS011;7664;52.008;4.748;2023-05-21T03:57:47;4.07;;;2.88;;
15126;SDS011;7664;52.008;4.748;2023-05-21T04:00:16;3.45;;;2.38;;
15126;SDS011;7664;52.008;4.748;2023-05-21T04:02:46;4.10;;;2.60;;
15126;SDS011;7664;52.008;4.748;2023-05-21T04:05:15;3.58;;;2.40;;
15126;SDS011;7664;52.008;4.748;2023-05-21T04:07:45;4.65;;;3.28;;
15126;SDS011;7664;52.008;4.748;2023-05-21T04:10:14;6.03;;;2.75;;
15126;SDS011;7664;52.008;4.748;2023-05-21T04:12:42;3.65;;;2.60;;
15126;SDS011;7664;52.008;4.748;2023-05-21T04:15:11;4.88;;;2.90;;
15126;SDS011;7664;52.008;4.748;2023-05-21T04:17:40;3.58;;;2.90;;
15126;SDS011;7664;52.008;4.748;2023-05-21T04:20:08;5.13;;;3.65;;
15126;SDS011;7664;52.008;4.748;2023-05-21T04:22:37;5.35;;;3.17;;
15126;SDS011;7664;52.008;4.748;2023-05-21T04:25:07;5.40;;;3.03;;
15126;SDS011;7664;52.008;4.748;2023-05-21T04:27:37;7.40;;;3.38;;
15126;SDS011;7664;52.008;4.748;2023-05-21T04:30:06;5.70;;;3.38;;
15126;SDS011;7664;52.008;4.748;2023-05-21T04:32:36;6.60;;;3.63;;
15126;SDS011;7664;52.008;4.748;2023-05-21T04:35:06;4.65;;;3.20;;
15126;SDS011;7664;52.008;4.748;2023-05-21T04:37:35;3.05;;;2.40;;
15126;SDS011;7664;52.008;4.748;2023-05-21T04:40:09;4.68;;;3.03;;
15126;SDS011;7664;52.008;4.748;2023-05-21T04:42:38;3.67;;;3.08;;
15126;SDS011;7664;52.008;4.748;2023-05-21T04:45:07;3.63;;;2.90;;
15126;SDS011;7664;52.008;4.748;2023-05-21T04:47:38;6.00;;;2.70;;
15126;SDS011;7664;52.008;4.748;2023-05-21T04:50:08;4.45;;;3.22;;
15126;SDS011;7664;52.008;4.748;2023-05-21T04:52:37;6.40;;;3.20;;
15126;SDS011;7664;52.008;4.748;2023-05-21T04:55:06;5.05;;;3.42;;
15126;SDS011;7664;52.008;4.748;2023-05-21T04:57:36;7.78;;;3.17;;
15126;SDS011;7664;52.008;4.748;2023-05-21T05:00:06;5.80;;;3.47;;
15126;SDS011;7664;52.008;4.748;2023-05-21T05:02:40;4.38;;;2.72;;
15126;SDS011;7664;52.008;4.748;2023-05-21T05:05:08;4.68;;;3.03;;
15126;SDS011;7664;52.008;4.748;2023-05-21T05:07:37;3.55;;;2.40;;
15126;SDS011;7664;52.008;4.748;2023-05-21T05:10:05;3.65;;;3.13;;
15126;SDS011;7664;52.008;4.748;2023-05-21T05:12:34;6.65;;;3.30;;
15126;SDS011;7664;52.008;4.748;2023-05-21T05:15:05;4.40;;;2.97;;
15126;SDS011;7664;52.008;4.748;2023-05-21T05:17:35;4.43;;;3.35;;
15126;SDS011;7664;52.008;4.748;2023-05-21T05:20:05;3.30;;;2.55;;
15126;SDS011;7664;52.008;4.748;2023-05-21T05:22:35;4.22;;;2.88;;
15126;SDS011;7664;52.008;4.748;2023-05-21T05:25:03;5.95;;;3.55;;
15126;SDS011;7664;52.008;4.748;2023-05-21T05:27:33;5.18;;;3.08;;
15126;SDS011;7664;52.008;4.748;2023-05-21T05:30:06;4.88;;;3.22;;
15126;SDS011;7664;52.008;4.748;2023-05-21T05:32:35;4.43;;;2.95;;
15126;SDS011;7664;52.008;4.748;2023-05-21T05:35:04;4.10;;;2.78;;
15126;SDS011;7664;52.008;4.748;2023-05-21T05:37:32;4.05;;;2.65;;
15126;SDS011;7664;52.008;4.748;2023-05-21T05:40:01;4.10;;;2.70;;
15126;SDS011;7664;52.008;4.748;2023-05-21T05:42:30;5.18;;;3.30;;
15126;SDS011;7664;52.008;4.748;2023-05-21T05:45:03;4.72;;;3.30;;
15126;SDS011;7664;52.008;4.748;2023-05-21T05:47:33;5.35;;;2.80;;
15126;SDS011;7664;52.008;4.748;2023-05-21T05:50:02;5.22;;;3.55;;
15126;SDS011;7664;52.008;4.748;2023-05-21T05:52:30;3.58;;;2.40;;
15126;SDS011;7664;52.008;4.748;2023-05-21T05:54:59;3.95;;;3.35;;
15126;SDS011;7664;52.008;4.748;2023-05-21T05:57:27;2.67;;;2.05;;
15126;SDS011;7664;52.008;4.748;2023-05-21T06:00:00;4.55;;;2.92;;
15126;SDS011;7664;52.008;4.748;2023-05-21T06:02:38;2.58;;;2.25;;
15126;SDS011;7664;52.008;4.748;2023-05-21T06:05:08;5.82;;;3.25;;
15126;SDS011;7664;52.008;4.748;2023-05-21T06:07:37;5.05;;;3.05;;
15126;SDS011;7664;52.008;4.748;2023-05-21T06:10:06;5.03;;;3.28;;
15126;SDS011;7664;52.008;4.748;2023-05-21T06:12:35;3.55;;;2.45;;
15126;SDS011;7664;52.008;4.748;2023-05-21T06:15:04;6.18;;;3.08;;
15126;SDS011;7664;52.008;4.748;2023-05-21T06:17:33;5.82;;;3.25;;
15126;SDS011;7664;52.008;4.748;2023-05-21T06:20:04;5.93;;;3.58;;
15126;SDS011;7664;52.008;4.748;2023-05-21T06:22:33;4.35;;;2.97;;
15126;SDS011;7664;52.008;4.748;2023-05-21T06:25:04;4.70;;;3.45;;
15126;SDS011;7664;52.008;4.748;2023-05-21T06:27:32;4.75;;;3.22;;
15126;SDS011;7664;52.008;4.748;2023-05-21T06:30:02;5.30;;;3.35;;
15126;SDS011;7664;52.008;4.748;2023-05-21T06:32:31;4.65;;;3.25;;
15126;SDS011;7664;52.008;4.748;2023-05-21T06:35:00;4.10;;;3.08;;
15126;SDS011;7664;52.008;4.748;2023-05-21T06:37:30;6.90;;;3.40;;
15126;SDS011;7664;52.008;4.748;2023-05-21T06:39:58;5.43;;;3.75;;
15126;SDS011;7664;52.008;4.748;2023-05-21T06:42:28;4.82;;;3.05;;
15126;SDS011;7664;52.008;4.748;2023-05-21T06:45:36;4.35;;;2.78;;
15126;SDS011;7664;52.008;4.748;2023-05-21T06:48:17;6.15;;;3.95;;
15126;SDS011;7664;52.008;4.748;2023-05-21T06:50:46;5.45;;;3.15;;
15126;SDS011;7664;52.008;4.748;2023-05-21T06:53:16;5.38;;;3.38;;
15126;SDS011;7664;52.008;4.748;2023-05-21T06:55:45;4.78;;;3.30;;
15126;SDS011;7664;52.008;4.748;2023-05-21T06:58:19;6.55;;;3.53;;
15126;SDS011;7664;52.008;4.748;2023-05-21T07:00:48;6.07;;;4.20;;
15126;SDS011;7664;52.008;4.748;2023-05-21T07:03:16;6.25;;;4.45;;
15126;SDS011;7664;52.008;4.748;2023-05-21T07:05:45;4.70;;;3.42;;
15126;SDS011;7664;52.008;4.748;2023-05-21T07:08:14;4.45;;;3.72;;
15126;SDS011;7664;52.008;4.748;2023-05-21T07:10:44;5.50;;;3.35;;
15126;SDS011;7664;52.008;4.748;2023-05-21T07:13:12;4.53;;;3.03;;
15126;SDS011;7664;52.008;4.748;2023-05-21T07:15:40;5.05;;;3.30;;
15126;SDS011;7664;52.008;4.748;2023-05-21T07:18:09;5.30;;;4.18;;
15126;SDS011;7664;52.008;4.748;2023-05-21T07:20:38;8.45;;;3.85;;
15126;SDS011;7664;52.008;4.748;2023-05-21T07:23:10;6.03;;;3.78;;
15126;SDS011;7664;52.008;4.748;2023-05-21T07:25:39;10.10;;;4.25;;
15126;SDS011;7664;52.008;4.748;2023-05-21T07:28:09;6.13;;;4.07;;
15126;SDS011;7664;52.008;4.748;2023-05-21T07:30:37;5.68;;;3.95;;
15126;SDS011;7664;52.008;4.748;2023-05-21T07:33:10;7.38;;;4.20;;
15126;SDS011;7664;52.008;4.748;2023-05-21T07:35:39;5.20;;;3.60;;
15126;SDS011;7664;52.008;4.748;2023-05-21T07:38:07;5.13;;;3.70;;
15126;SDS011;7664;52.008;4.748;2023-05-21T07:40:36;6.88;;;4.25;;
15126;SDS011;7664;52.008;4.748;2023-05-21T07:43:05;7.20;;;4.35;;
15126;SDS011;7664;52.008;4.748;2023-05-21T07:45:36;5.25;;;3.58;;
15126;SDS011;7664;52.008;4.748;2023-05-21T07:48:05;6.72;;;4.15;;
15126;SDS011;7664;52.008;4.748;2023-05-21T07:50:41;6.53;;;4.00;;
15126;SDS011;7664;52.008;4.748;2023-05-21T07:53:12;7.78;;;4.38;;
15126;SDS011;7664;52.008;4.748;2023-05-21T07:55:40;8.15;;;3.95;;
15126;SDS011;7664;52.008;4.748;2023-05-21T07:58:15;8.98;;;3.45;;
15126;SDS011;7664;52.008;4.748;2023-05-21T08:00:48;7.35;;;4.40;;
15126;SDS011;7664;52.008;4.748;2023-05-21T08:03:17;5.95;;;3.90;;
15126;SDS011;7664;52.008;4.748;2023-05-21T08:05:48;6.53;;;4.30;;
15126;SDS011;7664;52.008;4.748;2023-05-21T08:08:17;6.82;;;4.78;;
15126;SDS011;7664;52.008;4.748;2023-05-21T08:10:48;5.82;;;4.20;;
15126;SDS011;7664;52.008;4.748;2023-05-21T08:13:17;5.13;;;3.85;;
15126;SDS011;7664;52.008;4.748;2023-05-21T08:15:48;5.47;;;4.03;;
15126;SDS011;7664;52.008;4.748;2023-05-21T08:18:19;7.00;;;3.65;;
15126;SDS011;7664;52.008;4.748;2023-05-21T08:20:50;6.57;;;4.50;;
15126;SDS011;7664;52.008;4.748;2023-05-21T08:23:20;7.93;;;4.28;;
15126;SDS011;7664;52.008;4.748;2023-05-21T08:25:52;7.60;;;4.40;;
15126;SDS011;7664;52.008;4.748;2023-05-21T08:28:20;5.80;;;3.90;;
15126;SDS011;7664;52.008;4.748;2023-05-21T08:30:51;6.10;;;3.75;;
15126;SDS011;7664;52.008;4.748;2023-05-21T08:33:21;5.72;;;4.10;;
15126;SDS011;7664;52.008;4.748;2023-05-21T08:35:50;6.60;;;3.92;;
15126;SDS011;7664;52.008;4.748;2023-05-21T08:38:26;5.75;;;4.15;;
15126;SDS011;7664;52.008;4.748;2023-05-21T08:41:06;6.07;;;4.35;;
15126;SDS011;7664;52.008;4.748;2023-05-21T08:43:36;5.60;;;4.20;;
15126;SDS011;7664;52.008;4.748;2023-05-21T08:46:07;9.57;;;4.30;;
15126;SDS011;7664;52.008;4.748;2023-05-21T08:48:38;6.70;;;4.28;;
15126;SDS011;7664;52.008;4.748;2023-05-21T08:51:06;6.82;;;4.57;;
15126;SDS011;7664;52.008;4.748;2023-05-21T08:53:41;6.78;;;3.90;;
15126;SDS011;7664;52.008;4.748;2023-05-21T08:56:13;7.00;;;3.92;;
15126;SDS011;7664;52.008;4.748;2023-05-21T08:58:47;8.60;;;4.43;;
15126;SDS011;7664;52.008;4.748;2023-05-21T09:01:22;5.88;;;4.07;;
15126;SDS011;7664;52.008;4.748;2023-05-21T09:04:09;5.72;;;3.63;;
15126;SDS011;7664;52.008;4.748;2023-05-21T09:06:49;7.03;;;4.10;;
15126;SDS011;7664;52.008;4.748;2023-05-21T09:09:32;5.80;;;4.15;;
15126;SDS011;7664;52.008;4.748;2023-05-21T09:12:01;7.75;;;5.05;;
15126;SDS011;7664;52.008;4.748;2023-05-21T09:14:30;7.63;;;4.28;;
15126;SDS011;7664;52.008;4.748;2023-05-21T09:17:13;6.68;;;4.13;;
15126;SDS011;7664;52.008;4.748;2023-05-21T09:20:03;7.38;;;3.80;;
15126;SDS011;7664;52.008;4.748;2023-05-21T09:22:35;7.50;;;4.32;;
15126;SDS011;7664;52.008;4.748;2023-05-21T09:25:05;5.10;;;3.60;;
15126;SDS011;7664;52.008;4.748;2023-05-21T09:27:34;5.72;;;4.00;;
15126;SDS011;7664;52.008;4.748;2023-05-21T09:30:03;5.97;;;4.13;;
15126;SDS011;7664;52.008;4.748;2023-05-21T09:32:33;7.20;;;4.30;;
15126;SDS011;7664;52.008;4.748;2023-05-21T09:35:05;3.85;;;2.83;;
15126;SDS011;7664;52.008;4.748;2023-05-21T09:37:38;9.10;;;4.72;;
15126;SDS011;7664;52.008;4.748;2023-05-21T09:40:10;6.57;;;3.65;;
15126;SDS011;7664;52.008;4.748;2023-05-21T09:42:39;6.78;;;4.20;;
15126;SDS011;7664;52.008;4.748;2023-05-21T09:45:09;5.68;;;4.10;;
15126;SDS011;7664;52.008;4.748;2023-05-21T09:47:43;6.78;;;3.63;;
15126;SDS011;7664;52.008;4.748;2023-05-21T09:50:11;8.73;;;3.53;;
15126;SDS011;7664;52.008;4.748;2023-05-21T09:52:40;7.70;;;4.32;;
15126;SDS011;7664;52.008;4.748;2023-05-21T09:55:09;6.63;;;4.05;;
15126;SDS011;7664;52.008;4.748;2023-05-21T09:57:41;5.32;;;3.67;;
15126;SDS011;7664;52.008;4.748;2023-05-21T10:00:16;7.60;;;3.72;;
15126;SDS011;7664;52.008;4.748;2023-05-21T10:02:46;8.43;;;4.05;;
15126;SDS011;7664;52.008;4.748;2023-05-21T10:05:15;6.38;;;3.92;;
15126;SDS011;7664;52.008;4.748;2023-05-21T10:07:44;6.10;;;3.55;;
15126;SDS011;7664;52.008;4.748;2023-05-21T10:10:14;5.07;;;3.22;;
15126;SDS011;7664;52.008;4.748;2023-05-21T10:12:44;5.95;;;4.20;;
15126;SDS011;7664;52.008;4.748;2023-05-21T10:15:18;6.38;;;4.05;;
15126;SDS011;7664;52.008;4.748;2023-05-21T10:17:48;4.22;;;3.20;;
15126;SDS011;7664;52.008;4.748;2023-05-21T10:20:17;5.85;;;4.13;;
15126;SDS011;7664;52.008;4.748;2023-05-21T10:22:46;9.30;;;4.93;;
15126;SDS011;7664;52.008;4.748;2023-05-21T10:25:14;5.70;;;4.05;;
15126;SDS011;7664;52.008;4.748;2023-05-21T10:27:43;4.68;;;3.50;;
15126;SDS011;7664;52.008;4.748;2023-05-21T10:30:14;6.15;;;3.50;;
15126;SDS011;7664;52.008;4.748;2023-05-21T10:32:43;5.45;;;3.60;;
15126;SDS011;7664;52.008;4.748;2023-05-21T10:35:16;7.93;;;3.95;;
15126;SDS011;7664;52.008;4.748;2023-05-21T10:37:44;6.32;;;3.60;;
15126;SDS011;7664;52.008;4.748;2023-05-21T10:40:13;6.80;;;4.03;;
15126;SDS011;7664;52.008;4.748;2023-05-21T10:42:49;6.00;;;3.83;;
15126;SDS011;7664;52.008;4.748;2023-05-21T10:45:22;9.48;;;4.38;;
15126;SDS011;7664;52.008;4.748;2023-05-21T10:50:45;5.82;;;3.85;;
15126;SDS011;7664;52.008;4.748;2023-05-21T10:53:19;7.00;;;4.03;;
15126;SDS011;7664;52.008;4.748;2023-05-21T10:55:51;10.05;;;4.10;;
15126;SDS011;7664;52.008;4.748;2023-05-21T11:01:13;8.20;;;4.35;;
15126;SDS011;7664;52.008;4.748;2023-05-21T11:03:45;7.30;;;3.92;;
15126;SDS011;7664;52.008;4.748;2023-05-21T11:06:22;4.85;;;3.75;;
15126;SDS011;7664;52.008;4.748;2023-05-21T11:08:52;5.13;;;3.47;;
15126;SDS011;7664;52.008;4.748;2023-05-21T11:11:40;6.53;;;3.95;;
15126;SDS011;7664;52.008;4.748;2023-05-21T11:14:24;6.38;;;3.90;;
15126;SDS011;7664;52.008;4.748;2023-05-21T11:16:54;7.93;;;4.65;;
15126;SDS011;7664;52.008;4.748;2023-05-21T11:19:31;8.05;;;4.88;;
15126;SDS011;7664;52.008;4.748;2023-05-21T11:22:05;5.72;;;3.80;;
15126;SDS011;7664;52.008;4.748;2023-05-21T11:24:36;8.40;;;4.07;;
15126;SDS011;7664;52.008;4.748;2023-05-21T11:27:05;4.93;;;3.60;;
15126;SDS011;7664;52.008;4.748;2023-05-21T11:29:37;7.50;;;3.90;;
15126;SDS011;7664;52.008;4.748;2023-05-21T11:32:07;6.53;;;3.97;;
15126;SDS011;7664;52.008;4.748;2023-05-21T11:34:37;5.40;;;3.90;;
15126;SDS011;7664;52.008;4.748;2023-05-21T11:40:17;9.68;;;4.68;;
15126;SDS011;7664;52.008;4.748;2023-05-21T11:42:49;5.63;;;4.13;;
15126;SDS011;7664;52.008;4.748;2023-05-21T11:45:18;6.68;;;4.32;;
15126;SDS011;7664;52.008;4.748;2023-05-21T11:47:47;9.45;;;4.10;;
15126;SDS011;7664;52.008;4.748;2023-05-21T11:50:17;8.23;;;4.65;;
15126;SDS011;7664;52.008;4.748;2023-05-21T11:52:46;9.90;;;4.38;;
15126;SDS011;7664;52.008;4.748;2023-05-21T11:55:21;5.03;;;3.53;;
15126;SDS011;7664;52.008;4.748;2023-05-21T11:57:51;7.03;;;4.28;;
15126;SDS011;7664;52.008;4.748;2023-05-21T12:00:20;8.55;;;5.10;;
15126;SDS011;7664;52.008;4.748;2023-05-21T12:02:50;6.05;;;4.38;;
15126;SDS011;7664;52.008;4.748;2023-05-21T12:05:21;7.68;;;4.80;;
15126;SDS011;7664;52.008;4.748;2023-05-21T12:07:50;7.32;;;5.07;;
15126;SDS011;7664;52.008;4.748;2023-05-21T12:10:22;7.65;;;4.30;;
15126;SDS011;7664;52.008;4.748;2023-05-21T12:12:50;5.95;;;4.15;;
15126;SDS011;7664;52.008;4.748;2023-05-21T12:15:22;6.82;;;4.30;;
15126;SDS011;7664;52.008;4.748;2023-05-21T12:17:51;7.55;;;4.95;;
15126;SDS011;7664;52.008;4.748;2023-05-21T12:20:20;5.72;;;3.85;;
15126;SDS011;7664;52.008;4.748;2023-05-21T12:22:49;11.80;;;4.72;;
15126;SDS011;7664;52.008;4.748;2023-05-21T12:25:17;5.38;;;3.90;;
15126;SDS011;7664;52.008;4.748;2023-05-21T12:27:48;7.28;;;4.15;;
15126;SDS011;7664;52.008;4.748;2023-05-21T12:30:18;6.70;;;4.63;;
15126;SDS011;7664;52.008;4.748;2023-05-21T12:32:47;7.32;;;4.63;;
15126;SDS011;7664;52.008;4.748;2023-05-21T12:35:19;6.40;;;4.53;;
15126;SDS011;7664;52.008;4.748;2023-05-21T12:37:48;7.70;;;4.55;;
15126;SDS011;7664;52.008;4.748;2023-05-21T12:40:17;6.95;;;4.60;;
15126;SDS011;7664;52.008;4.748;2023-05-21T12:42:48;6.68;;;4.32;;
15126;SDS011;7664;52.008;4.748;2023-05-21T12:45:17;8.32;;;4.95;;
15126;SDS011;7664;52.008;4.748;2023-05-21T12:47:48;6.82;;;4.97;;
15126;SDS011;7664;52.008;4.748;2023-05-21T12:50:21;7.45;;;4.18;;
15126;SDS011;7664;52.008;4.748;2023-05-21T12:52:52;6.95;;;4.45;;
15126;SDS011;7664;52.008;4.748;2023-05-21T12:55:22;7.15;;;4.75;;
15126;SDS011;7664;52.008;4.748;2023-05-21T12:58:00;8.15;;;5.10;;
15126;SDS011;7664;52.008;4.748;2023-05-21T13:00:30;6.72;;;4.60;;
15126;SDS011;7664;52.008;4.748;2023-05-21T13:03:01;6.50;;;4.43;;
15126;SDS011;7664;52.008;4.748;2023-05-21T13:05:31;6.75;;;4.55;;
15126;SDS011;7664;52.008;4.748;2023-05-21T13:08:00;7.85;;;5.00;;
15126;SDS011;7664;52.008;4.748;2023-05-21T13:10:28;6.38;;;5.35;;
15126;SDS011;7664;52.008;4.748;2023-05-21T13:12:57;13.57;;;5.20;;
15126;SDS011;7664;52.008;4.748;2023-05-21T13:15:30;6.45;;;4.53;;
15126;SDS011;7664;52.008;4.748;2023-05-21T13:17:58;6.88;;;5.30;;
15126;SDS011;7664;52.008;4.748;2023-05-21T13:20:27;6.55;;;4.70;;
15126;SDS011;7664;52.008;4.748;2023-05-21T13:22:55;6.72;;;4.85;;
15126;SDS011;7664;52.008;4.748;2023-05-21T13:25:26;7.00;;;4.72;;
15126;SDS011;7664;52.008;4.748;2023-05-21T13:27:55;6.07;;;4.05;;
15126;SDS011;7664;52.008;4.748;2023-05-21T13:30:24;9.23;;;4.95;;
15126;SDS011;7664;52.008;4.748;2023-05-21T13:32:54;6.35;;;4.10;;
15126;SDS011;7664;52.008;4.748;2023-05-21T13:35:22;6.68;;;4.45;;
15126;SDS011;7664;52.008;4.748;2023-05-21T13:37:51;6.60;;;4.82;;
15126;SDS011;7664;52.008;4.748;2023-05-21T13:40:20;7.40;;;4.88;;
15126;SDS011;7664;52.008;4.748;2023-05-21T13:42:49;8.23;;;4.28;;
15126;SDS011;7664;52.008;4.748;2023-05-21T13:45:18;8.82;;;5.07;;
15126;SDS011;7664;52.008;4.748;2023-05-21T13:47:47;8.63;;;4.80;;
15126;SDS011;7664;52.008;4.748;2023-05-21T13:50:17;8.57;;;4.95;;
15126;SDS011;7664;52.008;4.748;2023-05-21T13:52:45;6.45;;;4.60;;
15126;SDS011;7664;52.008;4.748;2023-05-21T13:55:13;8.40;;;5.20;;
15126;SDS011;7664;52.008;4.748;2023-05-21T13:57:42;10.75;;;4.90;;
15126;SDS011;7664;52.008;4.748;2023-05-21T14:00:11;6.20;;;4.38;;
15126;SDS011;7664;52.008;4.748;2023-05-21T14:02:41;7.63;;;4.55;;
15126;SDS011;7664;52.008;4.748;2023-05-21T14:05:09;10.90;;;4.75;;
15126;SDS011;7664;52.008;4.748;2023-05-21T14:07:39;8.50;;;4.50;;
15126;SDS011;7664;52.008;4.748;2023-05-21T14:10:08;8.30;;;4.18;;
15126;SDS011;7664;52.008;4.748;2023-05-21T14:12:37;9.32;;;5.00;;
15126;SDS011;7664;52.008;4.748;2023-05-21T14:15:06;7.55;;;4.60;;
15126;SDS011;7664;52.008;4.748;2023-05-21T14:17:35;8.40;;;4.65;;
15126;SDS011;7664;52.008;4.748;2023-05-21T14:20:06;6.53;;;4.95;;
15126;SDS011;7664;52.008;4.748;2023-05-21T14:22:34;6.47;;;3.53;;
15126;SDS011;7664;52.008;4.748;2023-05-21T14:25:07;6.60;;;3.78;;
15126;SDS011;7664;52.008;4.748;2023-05-21T14:27:36;6.10;;;4.30;;
15126;SDS011;7664;52.008;4.748;2023-05-21T14:30:05;8.25;;;4.35;;
15126;SDS011;7664;52.008;4.748;2023-05-21T14:32:33;6.30;;;4.35;;
15126;SDS011;7664;52.008;4.748;2023-05-21T14:35:02;8.60;;;4.32;;
15126;SDS011;7664;52.008;4.748;2023-05-21T14:37:31;7.38;;;4.15;;
15126;SDS011;7664;52.008;4.748;2023-05-21T14:39:59;6.18;;;3.95;;
15126;SDS011;7664;52.008;4.748;2023-05-21T14:42:29;7.63;;;4.43;;
15126;SDS011;7664;52.008;4.748;2023-05-21T14:44:57;12.15;;;4.05;;
15126;SDS011;7664;52.008;4.748;2023-05-21T14:47:43;7.38;;;4.80;;
15126;SDS011;7664;52.008;4.748;2023-05-21T14:50:13;7.65;;;4.72;;
15126;SDS011;7664;52.008;4.748;2023-05-21T14:52:42;6.63;;;4.20;;
15126;SDS011;7664;52.008;4.748;2023-05-21T14:55:11;4.45;;;3.55;;
15126;SDS011;7664;52.008;4.748;2023-05-21T14:57:43;7.05;;;4.10;;
15126;SDS011;7664;52.008;4.748;2023-05-21T15:00:12;7.38;;;5.07;;
15126;SDS011;7664;52.008;4.748;2023-05-21T15:02:40;7.10;;;3.85;;
15126;SDS011;7664;52.008;4.748;2023-05-21T15:05:09;7.97;;;4.28;;
15126;SDS011;7664;52.008;4.748;2023-05-21T15:07:37;7.68;;;4.30;;
15126;SDS011;7664;52.008;4.748;2023-05-21T15:10:06;9.70;;;4.78;;
15126;SDS011;7664;52.008;4.748;2023-05-21T15:12:36;9.40;;;4.63;;
15126;SDS011;7664;52.008;4.748;2023-05-21T15:15:06;6.57;;;3.80;;
15126;SDS011;7664;52.008;4.748;2023-05-21T15:17:35;7.72;;;4.07;;
15126;SDS011;7664;52.008;4.748;2023-05-21T15:20:04;7.88;;;3.70;;
15126;SDS011;7664;52.008;4.748;2023-05-21T15:22:33;8.38;;;4.45;;
15126;SDS011;7664;52.008;4.748;2023-05-21T15:25:01;6.68;;;4.20;;
15126;SDS011;7664;52.008;4.748;2023-05-21T15:27:30;5.15;;;4.07;;